Darstellungsparameter: Aktuell verwendete Einstellungen:
Skalierung der Graphiken ... ?
xyx+y,   Skalierungsfaktor:      Skalierung: Modus: x, Faktor: 1
Darstellungszeitraum ... ?
Vom - - bis: - -   Zeitraum: 31.05.2022 - 31.05.2022
Min/Max/Avg-Anzeige ... ?
Zeige MMA aktuell
Zeige MMA Monat
Zeige MMA alles
Zeige --A aktuell
Zeige --A Monat
Zeige --A alles
Keine MMA-Anzeige
MMA:
Average (ber die Originaldaten)
MMA-Basis: 31.05.2022 - 31.05.2022
Quicknavigation für Darstellung... ?
Tage:      1T, 2T, 3T, 5T -1T -2T -3T -5T +1T +2T +3T +5T
Wochen: 1W, 2W, 3W -1W -2W -3W +1W +2W +3W
Monate: 1M, 3M, 6M -1M -3M -6M +1M +3M +6M
Jahre:    1J, 3J, 5J, 10J -1J -3J -5J -10J +1J +3J +5J +10J
Nutze für die Darstellung ... ?
Originaldaten oder Mittelwerte auf ...
Stundenbasis Tagesbasis Wochenbasis
Monatsbasis Jahresbasis      Datenbasis: Original-Daten
Darstellen als:
Statistik (Auto) Statistik J:M      Darstellung:
Zur Graphik,    zurück zur Übersicht aller Sensoren.
 
Tabellarische Datenbersicht: ?
 
Sensor: Nr:Datum:Temp:Abs-Feuchte:Windchill:Wind:
Aussen-T/F 1 31-05-2022 00:00:00 8.4 C 6.79 g/m*3 8.4 C 0 km/h
2 31-05-2022 00:05:00 8.4 C 6.87 g/m*3 8.4 C 0 km/h
3 31-05-2022 00:10:00 8.3 C 6.83 g/m*3 8.3 C 0 km/h
4 31-05-2022 00:15:00 8.3 C 6.83 g/m*3 8.3 C 0 km/h
5 31-05-2022 00:20:00 8.2 C 6.87 g/m*3 8.2 C 0 km/h
6 31-05-2022 00:25:00 8.2 C 6.87 g/m*3 8.2 C 0 km/h
7 31-05-2022 00:30:00 8.1 C 6.82 g/m*3 8.1 C 0 km/h
8 31-05-2022 00:35:00 8.1 C 6.91 g/m*3 8.1 C 0 km/h
9 31-05-2022 00:40:00 8 C 6.86 g/m*3 8 C 0 km/h
10 31-05-2022 00:45:00 7.9 C 6.82 g/m*3 7.9 C 0 km/h
11 31-05-2022 00:50:00 7.9 C 6.82 g/m*3 7.9 C 0 km/h
12 31-05-2022 00:55:00 7.9 C 6.82 g/m*3 7.9 C 0 km/h
13 31-05-2022 01:00:00 7.8 C 6.86 g/m*3 7.8 C 0 km/h
14 31-05-2022 01:05:00 7.8 C 6.86 g/m*3 7.8 C 0 km/h
15 31-05-2022 01:10:00 7.8 C 6.86 g/m*3 7.8 C 0 km/h
16 31-05-2022 01:15:00 7.7 C 6.89 g/m*3 7.7 C 0 km/h
17 31-05-2022 01:20:00 7.7 C 6.89 g/m*3 7.7 C 0 km/h
18 31-05-2022 01:25:00 7.7 C 6.89 g/m*3 7.7 C 0 km/h
19 31-05-2022 01:30:00 7.6 C 6.85 g/m*3 7.6 C 0 km/h
20 31-05-2022 01:35:00 7.6 C 6.93 g/m*3 7.6 C 0 km/h
21 31-05-2022 01:40:00 7.6 C 6.93 g/m*3 7.6 C 0 km/h
22 31-05-2022 01:45:00 7.6 C 6.93 g/m*3 7.6 C 0 km/h
23 31-05-2022 01:50:00 7.6 C 6.93 g/m*3 7.6 C 0 km/h
24 31-05-2022 01:55:00 7.5 C 6.88 g/m*3 7.5 C 0 km/h
25 31-05-2022 02:00:00 7.5 C 6.96 g/m*3 7.5 C 0 km/h
Sensor: Nr:Datum:Temp:Abs-Feuchte:Windchill:Wind:
Aussen-T/F 26 31-05-2022 02:05:00 7.4 C 6.92 g/m*3 7.4 C 0 km/h
27 31-05-2022 02:10:00 7.4 C 6.92 g/m*3 7.4 C 0 km/h
28 31-05-2022 02:15:00 7.4 C 6.92 g/m*3 7.4 C 0 km/h
29 31-05-2022 02:20:00 7.4 C 6.92 g/m*3 7.4 C 0 km/h
30 31-05-2022 02:25:00 7.3 C 6.87 g/m*3 7.3 C 0 km/h
31 31-05-2022 02:30:00 7.3 C 6.87 g/m*3 7.3 C 0 km/h
32 31-05-2022 02:35:00 7.3 C 6.95 g/m*3 7.3 C 0 km/h
33 31-05-2022 02:40:00 7.3 C 6.95 g/m*3 7.3 C 0 km/h
34 31-05-2022 02:45:00 7.3 C 6.95 g/m*3 7.3 C 0 km/h
35 31-05-2022 02:50:00 7.3 C 6.87 g/m*3 7.3 C 0 km/h
36 31-05-2022 02:55:00 7.2 C 6.83 g/m*3 7.2 C 0 km/h
37 31-05-2022 03:00:00 7.1 C 6.86 g/m*3 7.1 C 0 km/h
38 31-05-2022 03:05:00 7.1 C 6.86 g/m*3 7.1 C 0 km/h
39 31-05-2022 03:10:00 7.1 C 6.86 g/m*3 7.1 C 0 km/h
40 31-05-2022 03:15:00 7.1 C 6.86 g/m*3 7.1 C 0 km/h
41 31-05-2022 03:20:00 7.1 C 6.94 g/m*3 7.1 C 0 km/h
42 31-05-2022 03:25:00 7.1 C 6.94 g/m*3 7.1 C 0 km/h
43 31-05-2022 03:30:00 7.1 C 6.94 g/m*3 7.1 C 0 km/h
44 31-05-2022 03:35:00 7.1 C 6.94 g/m*3 7.1 C 0 km/h
45 31-05-2022 03:40:00 7.2 C 7.06 g/m*3 7.2 C 0 km/h
46 31-05-2022 03:45:00 7.1 C 7.02 g/m*3 7.1 C 0 km/h
47 31-05-2022 03:50:00 7.1 C 7.02 g/m*3 7.1 C 0 km/h
48 31-05-2022 03:55:00 7 C 6.9 g/m*3 7 C 0 km/h
49 31-05-2022 04:00:00 6.9 C 6.85 g/m*3 6.9 C 0 km/h
50 31-05-2022 04:05:00 6.8 C 6.81 g/m*3 6.8 C 0 km/h
Sensor: Nr:Datum:Temp:Abs-Feuchte:Windchill:Wind:
Aussen-T/F 51 31-05-2022 04:10:00 6.8 C 6.88 g/m*3 6.8 C 0 km/h
52 31-05-2022 04:15:00 6.7 C 6.84 g/m*3 6.7 C 0 km/h
53 31-05-2022 04:20:00 6.6 C 6.79 g/m*3 6.6 C 0 km/h
54 31-05-2022 04:25:00 6.5 C 6.75 g/m*3 6.5 C 0 km/h
55 31-05-2022 04:30:00 6.4 C 6.71 g/m*3 6.4 C 0 km/h
56 31-05-2022 04:35:00 6.4 C 6.71 g/m*3 6.4 C 0 km/h
57 31-05-2022 04:40:00 6.3 C 6.66 g/m*3 6.3 C 0 km/h
58 31-05-2022 04:45:00 6.3 C 6.66 g/m*3 6.3 C 0 km/h
59 31-05-2022 04:50:00 6.3 C 6.74 g/m*3 6.3 C 0 km/h
60 31-05-2022 04:55:00 6.2 C 6.69 g/m*3 6.2 C 0 km/h
61 31-05-2022 05:00:00 6.2 C 6.62 g/m*3 6.2 C 0 km/h
62 31-05-2022 05:05:00 6.1 C 6.58 g/m*3 6.1 C 0 km/h
63 31-05-2022 05:10:00 6 C 6.6 g/m*3 6 C 0 km/h
64 31-05-2022 05:15:00 5.9 C 6.56 g/m*3 5.9 C 0 km/h
65 31-05-2022 05:20:00 5.8 C 6.52 g/m*3 5.8 C 0 km/h
66 31-05-2022 05:25:00 5.8 C 6.52 g/m*3 5.8 C 0 km/h
67 31-05-2022 05:30:00 5.8 C 6.52 g/m*3 5.8 C 0 km/h
68 31-05-2022 05:35:00 5.8 C 6.52 g/m*3 5.8 C 0 km/h
69 31-05-2022 05:40:00 5.8 C 6.59 g/m*3 5.8 C 0 km/h
70 31-05-2022 05:45:00 5.9 C 6.63 g/m*3 5.9 C 0 km/h
71 31-05-2022 05:50:00 5.9 C 6.63 g/m*3 5.9 C 0 km/h
72 31-05-2022 05:55:00 5.9 C 6.63 g/m*3 5.9 C 0 km/h
73 31-05-2022 06:00:00 5.9 C 6.63 g/m*3 5.9 C 0 km/h
74 31-05-2022 06:05:00 6 C 6.75 g/m*3 6 C 0 km/h
75 31-05-2022 06:10:00 6.2 C 6.84 g/m*3 6.2 C 0 km/h
Sensor: Nr:Datum:Temp:Abs-Feuchte:Windchill:Wind:
Aussen-T/F 76 31-05-2022 06:15:00 6.3 C 6.88 g/m*3 6.3 C 0 km/h
77 31-05-2022 06:20:00 6.6 C 7.02 g/m*3 6.6 C 0 km/h
78 31-05-2022 06:25:00 6.7 C 7.14 g/m*3 6.7 C 0 km/h
79 31-05-2022 06:30:00 6.9 C 7.24 g/m*3 6.9 C 3.2 km/h
80 31-05-2022 06:35:00 7.1 C 7.33 g/m*3 7.1 C 0 km/h
81 31-05-2022 06:40:00 7.3 C 7.43 g/m*3 7.3 C 0 km/h
82 31-05-2022 06:45:00 7.4 C 7.4 g/m*3 7.4 C 0 km/h
83 31-05-2022 06:50:00 7.6 C 7.49 g/m*3 7.6 C 0 km/h
84 31-05-2022 06:55:00 7.7 C 7.54 g/m*3 7.7 C 0 km/h
85 31-05-2022 07:00:00 7.8 C 7.59 g/m*3 7.8 C 0 km/h
86 31-05-2022 07:05:00 8 C 7.69 g/m*3 8 C 0 km/h
87 31-05-2022 07:10:00 8.1 C 7.74 g/m*3 8.1 C 0 km/h
88 31-05-2022 07:15:00 8.2 C 7.79 g/m*3 8.2 C 3.2 km/h
89 31-05-2022 07:20:00 8.3 C 7.84 g/m*3 8.3 C 0 km/h
90 31-05-2022 07:25:00 8.3 C 7.75 g/m*3 8.3 C 0 km/h
91 31-05-2022 07:30:00 8.4 C 7.8 g/m*3 8.4 C 0 km/h
92 31-05-2022 07:35:00 8.5 C 7.85 g/m*3 8.5 C 0 km/h
93 31-05-2022 07:40:00 8.6 C 7.91 g/m*3 8.6 C 1.6 km/h
94 31-05-2022 07:45:00 8.6 C 7.91 g/m*3 8.6 C 0 km/h
95 31-05-2022 07:50:00 8.7 C 7.96 g/m*3 8.7 C 0 km/h
96 31-05-2022 07:55:00 8.7 C 7.96 g/m*3 8.7 C 0 km/h
97 31-05-2022 08:00:00 8.8 C 8.01 g/m*3 8.8 C 0 km/h
98 31-05-2022 08:05:00 8.9 C 8.06 g/m*3 8.9 C 0 km/h
99 31-05-2022 08:10:00 9.1 C 8.16 g/m*3 9.1 C 0 km/h
100 31-05-2022 08:15:00 9.1 C 8.07 g/m*3 9.1 C 0 km/h
Sensor: Nr:Datum:Temp:Abs-Feuchte:Windchill:Wind:
Aussen-T/F 101 31-05-2022 08:20:00 9.1 C 8.07 g/m*3 9.1 C 0 km/h
102 31-05-2022 08:25:00 9.1 C 8.07 g/m*3 9.1 C 0 km/h
103 31-05-2022 08:30:00 9.1 C 8.07 g/m*3 9.1 C 0 km/h
104 31-05-2022 08:35:00 9.1 C 8.07 g/m*3 9.1 C 3.2 km/h
105 31-05-2022 08:40:00 9.2 C 8.13 g/m*3 9.2 C 1.6 km/h
106 31-05-2022 08:45:00 9.2 C 8.13 g/m*3 9.2 C 0 km/h
107 31-05-2022 08:50:00 9.3 C 8.18 g/m*3 9.3 C 0 km/h
108 31-05-2022 08:55:00 9.4 C 8.23 g/m*3 9.4 C 0 km/h
109 31-05-2022 09:00:00 9.6 C 8.34 g/m*3 9.6 C 1.6 km/h
110 31-05-2022 09:05:00 9.9 C 8.4 g/m*3 9.25 C 6.4 km/h
111 31-05-2022 09:10:00 10.3 C 8.52 g/m*3 10.3 C 3.2 km/h
112 31-05-2022 09:15:00 10.8 C 8.7 g/m*3 10.8 C 4.8 km/h
113 31-05-2022 09:20:00 11.3 C 8.87 g/m*3 11.3 C 0 km/h
114 31-05-2022 09:25:00 11.7 C 8.99 g/m*3 11.7 C 0 km/h
115 31-05-2022 09:30:00 12 C 9.06 g/m*3 12 C 0 km/h
116 31-05-2022 09:35:00 12.2 C 9.06 g/m*3 12.2 C 1.6 km/h
117 31-05-2022 09:40:00 12.3 C 9.01 g/m*3 12.3 C 0 km/h
118 31-05-2022 09:45:00 12.6 C 9.18 g/m*3 12.6 C 0 km/h
119 31-05-2022 09:50:00 12.7 C 9.13 g/m*3 12.7 C 0 km/h
120 31-05-2022 09:55:00 12.8 C 9.3 g/m*3 12.8 C 0 km/h
121 31-05-2022 10:00:00 12.9 C 9.24 g/m*3 12.9 C 1.6 km/h
122 31-05-2022 10:05:00 13.2 C 9.42 g/m*3 13.2 C 0 km/h
123 31-05-2022 10:10:00 13.7 C 9 g/m*3 13.7 C 1.6 km/h
124 31-05-2022 10:15:00 14.2 C 9.28 g/m*3 14.2 C 1.6 km/h
125 31-05-2022 10:20:00 14.7 C 9.44 g/m*3 14.7 C 1.6 km/h
Sensor: Nr:Datum:Temp:Abs-Feuchte:Windchill:Wind:
Aussen-T/F 126 31-05-2022 10:25:00 15.4 C 9.2 g/m*3 15.4 C 4.8 km/h
127 31-05-2022 10:30:00 15.8 C 9.02 g/m*3 15.8 C 6.4 km/h
128 31-05-2022 10:35:00 16.2 C 9.79 g/m*3 16.2 C 0 km/h
129 31-05-2022 10:40:00 16.6 C 9.46 g/m*3 16.6 C 4.8 km/h
130 31-05-2022 10:45:00 17 C 9.26 g/m*3 17 C 4.8 km/h
131 31-05-2022 10:50:00 17.3 C 9.28 g/m*3 17.3 C 6.4 km/h
132 31-05-2022 10:55:00 17.6 C 9.45 g/m*3 17.6 C 8.1 km/h
133 31-05-2022 11:00:00 17.9 C 9.31 g/m*3 17.9 C 8.1 km/h
134 31-05-2022 11:05:00 18.1 C 9.43 g/m*3 18.1 C 4.8 km/h
135 31-05-2022 11:10:00 18.4 C 9.28 g/m*3 18.4 C 9.7 km/h
136 31-05-2022 11:15:00 18.7 C 9.29 g/m*3 18.7 C 6.4 km/h
137 31-05-2022 11:20:00 19.1 C 9.18 g/m*3 19.1 C 9.7 km/h
138 31-05-2022 11:25:00 19.4 C 9.34 g/m*3 19.4 C 9.7 km/h
139 31-05-2022 11:30:00 19.8 C 9.22 g/m*3 19.8 C 12.9 km/h
140 31-05-2022 11:35:00 19.6 C 9.28 g/m*3 19.6 C 16.1 km/h
141 31-05-2022 11:40:00 19.1 C 9.34 g/m*3 19.1 C 17.7 km/h
142 31-05-2022 11:45:00 18.4 C 9.12 g/m*3 18.4 C 17.7 km/h
143 31-05-2022 11:50:00 17.9 C 9.01 g/m*3 17.9 C 11.3 km/h
144 31-05-2022 11:55:00 17.6 C 8.85 g/m*3 17.6 C 11.3 km/h
145 31-05-2022 12:00:00 17.6 C 9 g/m*3 17.6 C 12.9 km/h
146 31-05-2022 12:05:00 17.6 C 8.85 g/m*3 17.6 C 16.1 km/h
147 31-05-2022 12:10:00 17.5 C 8.95 g/m*3 17.5 C 11.3 km/h
148 31-05-2022 12:15:00 17.4 C 8.89 g/m*3 17.4 C 12.9 km/h
149 31-05-2022 12:20:00 17.5 C 8.95 g/m*3 17.5 C 11.3 km/h
150 31-05-2022 12:25:00 17.4 C 8.89 g/m*3 17.4 C 12.9 km/h
Sensor: Nr:Datum:Temp:Abs-Feuchte:Windchill:Wind:
Aussen-T/F 151 31-05-2022 12:30:00 17.4 C 9.04 g/m*3 17.4 C 9.7 km/h
152 31-05-2022 12:35:00 17.4 C 8.74 g/m*3 17.4 C 8.1 km/h
153 31-05-2022 12:40:00 17.6 C 9 g/m*3 17.6 C 8.1 km/h
154 31-05-2022 12:45:00 17.7 C 8.9 g/m*3 17.7 C 8.1 km/h
155 31-05-2022 12:50:00 17.7 C 8.9 g/m*3 17.7 C 6.4 km/h
156 31-05-2022 12:55:00 17.8 C 9.11 g/m*3 17.8 C 4.8 km/h
157 31-05-2022 13:00:00 17.8 C 9.26 g/m*3 17.8 C 3.2 km/h
158 31-05-2022 13:05:00 18.1 C 9.12 g/m*3 18.1 C 6.4 km/h
159 31-05-2022 13:10:00 18.5 C 9.18 g/m*3 18.5 C 6.4 km/h
160 31-05-2022 13:15:00 18.9 C 9.56 g/m*3 18.9 C 4.8 km/h
161 31-05-2022 13:20:00 19.4 C 9.34 g/m*3 19.4 C 8.1 km/h
162 31-05-2022 13:25:00 19.9 C 9.11 g/m*3 19.9 C 8.1 km/h
163 31-05-2022 13:30:00 20 C 8.99 g/m*3 20 C 8.1 km/h
164 31-05-2022 13:35:00 20.2 C 9.44 g/m*3 20.2 C 4.8 km/h
165 31-05-2022 13:40:00 20.7 C 8.82 g/m*3 20.7 C 6.4 km/h
166 31-05-2022 13:45:00 20.6 C 8.95 g/m*3 20.6 C 4.8 km/h
167 31-05-2022 13:50:00 20.4 C 9.38 g/m*3 20.4 C 1.6 km/h
168 31-05-2022 13:55:00 20.2 C 9.27 g/m*3 20.2 C 3.2 km/h
169 31-05-2022 14:00:00 20.3 C 9.15 g/m*3 20.3 C 3.2 km/h
170 31-05-2022 14:05:00 20.5 C 8.9 g/m*3 20.5 C 4.8 km/h
171 31-05-2022 14:10:00 20.8 C 9.23 g/m*3 20.8 C 6.4 km/h
172 31-05-2022 14:15:00 20.8 C 8.87 g/m*3 20.8 C 6.4 km/h
173 31-05-2022 14:20:00 20.6 C 8.77 g/m*3 20.6 C 3.2 km/h
174 31-05-2022 14:25:00 20.3 C 8.62 g/m*3 20.3 C 19.3 km/h
175 31-05-2022 14:30:00 19.7 C 8.32 g/m*3 19.7 C 19.3 km/h
Sensor: Nr:Datum:Temp:Abs-Feuchte:Windchill:Wind:
Aussen-T/F 176 31-05-2022 14:35:00 19.4 C 8.51 g/m*3 19.4 C 16.1 km/h
177 31-05-2022 14:40:00 19.3 C 8.46 g/m*3 19.3 C 20.9 km/h
178 31-05-2022 14:45:00 18.9 C 8.26 g/m*3 18.9 C 16.1 km/h
179 31-05-2022 14:50:00 18.4 C 8.49 g/m*3 18.4 C 16.1 km/h
180 31-05-2022 14:55:00 18.1 C 8.65 g/m*3 18.1 C 22.5 km/h
181 31-05-2022 15:00:00 18 C 8.45 g/m*3 18 C 27.4 km/h
182 31-05-2022 15:05:00 18 C 9.06 g/m*3 18 C 14.5 km/h
183 31-05-2022 15:10:00 18.3 C 8.6 g/m*3 18.3 C 20.9 km/h
184 31-05-2022 15:15:00 18.3 C 9.07 g/m*3 18.3 C 14.5 km/h
185 31-05-2022 15:20:00 18.7 C 9.13 g/m*3 18.7 C 9.7 km/h
186 31-05-2022 15:25:00 19.2 C 9.4 g/m*3 19.2 C 12.9 km/h
187 31-05-2022 15:30:00 19.4 C 9.01 g/m*3 19.4 C 14.5 km/h
188 31-05-2022 15:35:00 19.4 C 9.34 g/m*3 19.4 C 14.5 km/h
189 31-05-2022 15:40:00 19.4 C 8.84 g/m*3 19.4 C 12.9 km/h
190 31-05-2022 15:45:00 19.4 C 9.01 g/m*3 19.4 C 11.3 km/h
191 31-05-2022 15:50:00 19.4 C 8.84 g/m*3 19.4 C 11.3 km/h
192 31-05-2022 15:55:00 19.1 C 8.52 g/m*3 19.1 C 14.5 km/h
193 31-05-2022 16:00:00 19.2 C 8.9 g/m*3 19.2 C 12.9 km/h
194 31-05-2022 16:05:00 19.6 C 8.95 g/m*3 19.6 C 9.7 km/h
195 31-05-2022 16:10:00 19.5 C 8.56 g/m*3 19.5 C 14.5 km/h
196 31-05-2022 16:15:00 19.3 C 8.79 g/m*3 19.3 C 4.8 km/h
197 31-05-2022 16:20:00 19.2 C 8.9 g/m*3 19.2 C 9.7 km/h
198 31-05-2022 16:25:00 19.3 C 8.79 g/m*3 19.3 C 8.1 km/h
199 31-05-2022 16:30:00 19.5 C 9.06 g/m*3 19.5 C 9.7 km/h
200 31-05-2022 16:35:00 19.7 C 8.83 g/m*3 19.7 C 14.5 km/h
Sensor: Nr:Datum:Temp:Abs-Feuchte:Windchill:Wind:
Aussen-T/F 201 31-05-2022 16:40:00 19.8 C 8.88 g/m*3 19.8 C 11.3 km/h
202 31-05-2022 16:45:00 20.1 C 8.87 g/m*3 20.1 C 11.3 km/h
203 31-05-2022 16:50:00 20.1 C 8.69 g/m*3 20.1 C 9.7 km/h
204 31-05-2022 16:55:00 20.1 C 8.87 g/m*3 20.1 C 6.4 km/h
205 31-05-2022 17:00:00 20.3 C 8.79 g/m*3 20.3 C 11.3 km/h
206 31-05-2022 17:05:00 20.6 C 8.77 g/m*3 20.6 C 17.7 km/h
207 31-05-2022 17:10:00 20.2 C 8.74 g/m*3 20.2 C 12.9 km/h
208 31-05-2022 17:15:00 20.1 C 9.04 g/m*3 20.1 C 12.9 km/h
209 31-05-2022 17:20:00 20.6 C 9.13 g/m*3 20.6 C 8.1 km/h
210 31-05-2022 17:25:00 20.9 C 8.92 g/m*3 20.9 C 8.1 km/h
211 31-05-2022 17:30:00 21.1 C 8.66 g/m*3 21.1 C 11.3 km/h
212 31-05-2022 17:35:00 20.9 C 8.74 g/m*3 20.9 C 17.7 km/h
213 31-05-2022 17:40:00 20.9 C 8.38 g/m*3 20.9 C 8.1 km/h
214 31-05-2022 17:45:00 21.1 C 8.11 g/m*3 21.1 C 6.4 km/h
215 31-05-2022 17:50:00 20.7 C 8.1 g/m*3 20.7 C 8.1 km/h
216 31-05-2022 17:55:00 20.6 C 8.05 g/m*3 20.6 C 9.7 km/h
217 31-05-2022 18:00:00 20.7 C 8.28 g/m*3 20.7 C 8.1 km/h
218 31-05-2022 18:05:00 20.7 C 8.46 g/m*3 20.7 C 6.4 km/h
219 31-05-2022 18:10:00 20.8 C 8.51 g/m*3 20.8 C 11.3 km/h
220 31-05-2022 18:15:00 20.6 C 8.41 g/m*3 20.6 C 9.7 km/h
221 31-05-2022 18:20:00 20.1 C 8.34 g/m*3 20.1 C 9.7 km/h
222 31-05-2022 18:25:00 19.6 C 8.27 g/m*3 19.6 C 6.4 km/h
223 31-05-2022 18:30:00 19.6 C 8.44 g/m*3 19.6 C 6.4 km/h
224 31-05-2022 18:35:00 19.8 C 8.54 g/m*3 19.8 C 6.4 km/h
225 31-05-2022 18:40:00 20 C 8.47 g/m*3 20 C 6.4 km/h
Sensor: Nr:Datum:Temp:Abs-Feuchte:Windchill:Wind:
Aussen-T/F 226 31-05-2022 18:45:00 20.1 C 8.52 g/m*3 20.1 C 11.3 km/h
227 31-05-2022 18:50:00 20.1 C 8.52 g/m*3 20.1 C 9.7 km/h
228 31-05-2022 18:55:00 19.8 C 8.37 g/m*3 19.8 C 11.3 km/h
229 31-05-2022 19:00:00 19.7 C 8.15 g/m*3 19.7 C 8.1 km/h
230 31-05-2022 19:05:00 19.7 C 8.32 g/m*3 19.7 C 3.2 km/h
231 31-05-2022 19:10:00 19.6 C 8.27 g/m*3 19.6 C 4.8 km/h
232 31-05-2022 19:15:00 19.5 C 8.22 g/m*3 19.5 C 3.2 km/h
233 31-05-2022 19:20:00 19.4 C 8.18 g/m*3 19.4 C 6.4 km/h
234 31-05-2022 19:25:00 19.4 C 8.18 g/m*3 19.4 C 6.4 km/h
235 31-05-2022 19:30:00 19.4 C 8.18 g/m*3 19.4 C 6.4 km/h
236 31-05-2022 19:35:00 19.3 C 8.13 g/m*3 19.3 C 4.8 km/h
237 31-05-2022 19:40:00 19.3 C 8.29 g/m*3 19.3 C 3.2 km/h
238 31-05-2022 19:45:00 19.2 C 7.91 g/m*3 19.2 C 3.2 km/h
239 31-05-2022 19:50:00 19.2 C 8.74 g/m*3 19.2 C 0 km/h
240 31-05-2022 19:55:00 19.2 C 9.73 g/m*3 19.2 C 0 km/h
241 31-05-2022 20:00:00 19.1 C 9.51 g/m*3 19.1 C 0 km/h
242 31-05-2022 20:05:00 19 C 9.94 g/m*3 19 C 0 km/h
243 31-05-2022 20:10:00 18.9 C 9.88 g/m*3 18.9 C 0 km/h
244 31-05-2022 20:15:00 18.8 C 9.66 g/m*3 18.8 C 0 km/h
245 31-05-2022 20:20:00 18.8 C 9.18 g/m*3 18.8 C 0 km/h
246 31-05-2022 20:25:00 18.7 C 8.49 g/m*3 18.7 C 1.6 km/h
247 31-05-2022 20:30:00 18.8 C 9.82 g/m*3 18.8 C 0 km/h
248 31-05-2022 20:35:00 18.7 C 9.93 g/m*3 18.7 C 1.6 km/h
249 31-05-2022 20:40:00 18.4 C 9.59 g/m*3 18.4 C 1.6 km/h
250 31-05-2022 20:45:00 18.2 C 9.79 g/m*3 18.2 C 1.6 km/h
Sensor: Nr:Datum:Temp:Abs-Feuchte:Windchill:Wind:
Aussen-T/F 251 31-05-2022 20:50:00 17.9 C 9.77 g/m*3 17.9 C 1.6 km/h
252 31-05-2022 20:55:00 17.5 C 9.54 g/m*3 17.5 C 1.6 km/h
253 31-05-2022 21:00:00 17.1 C 9.17 g/m*3 17.1 C 6.4 km/h
254 31-05-2022 21:05:00 16.7 C 8.95 g/m*3 16.7 C 3.2 km/h
255 31-05-2022 21:10:00 16.4 C 9.07 g/m*3 16.4 C 1.6 km/h
256 31-05-2022 21:15:00 16.2 C 8.96 g/m*3 16.2 C 3.2 km/h
257 31-05-2022 21:20:00 15.9 C 8.8 g/m*3 15.9 C 1.6 km/h
258 31-05-2022 21:25:00 15.8 C 9.02 g/m*3 15.8 C 3.2 km/h
259 31-05-2022 21:30:00 15.7 C 9.1 g/m*3 15.7 C 1.6 km/h
260 31-05-2022 21:35:00 15.6 C 9.18 g/m*3 15.6 C 0 km/h
261 31-05-2022 21:40:00 15.4 C 9.07 g/m*3 15.4 C 1.6 km/h
262 31-05-2022 21:45:00 15.2 C 8.96 g/m*3 15.2 C 1.6 km/h
263 31-05-2022 21:50:00 15 C 8.85 g/m*3 15 C 3.2 km/h
264 31-05-2022 21:55:00 14.8 C 8.87 g/m*3 14.8 C 1.6 km/h
265 31-05-2022 22:00:00 14.6 C 8.63 g/m*3 14.6 C 1.6 km/h
266 31-05-2022 22:05:00 14.3 C 8.6 g/m*3 14.3 C 0 km/h
267 31-05-2022 22:10:00 14.2 C 8.67 g/m*3 14.2 C 0 km/h
268 31-05-2022 22:15:00 14.1 C 8.74 g/m*3 14.1 C 0 km/h
269 31-05-2022 22:20:00 14 C 8.68 g/m*3 14 C 0 km/h
270 31-05-2022 22:25:00 13.9 C 8.75 g/m*3 13.9 C 0 km/h
271 31-05-2022 22:30:00 13.8 C 8.7 g/m*3 13.8 C 0 km/h
272 31-05-2022 22:35:00 13.7 C 8.76 g/m*3 13.7 C 0 km/h
273 31-05-2022 22:40:00 13.6 C 8.83 g/m*3 13.6 C 0 km/h
274 31-05-2022 22:45:00 13.4 C 8.6 g/m*3 13.4 C 0 km/h
275 31-05-2022 22:50:00 13.2 C 8.61 g/m*3 13.2 C 0 km/h
Sensor: Nr:Datum:Temp:Abs-Feuchte:Windchill:Wind:
Aussen-T/F 276 31-05-2022 22:55:00 13.1 C 8.56 g/m*3 13.1 C 0 km/h
277 31-05-2022 23:00:00 12.8 C 8.4 g/m*3 12.8 C 0 km/h
278 31-05-2022 23:05:00 12.6 C 8.3 g/m*3 12.6 C 0 km/h
279 31-05-2022 23:10:00 12.4 C 8.3 g/m*3 12.4 C 0 km/h
280 31-05-2022 23:15:00 12.2 C 8.2 g/m*3 12.2 C 0 km/h
281 31-05-2022 23:20:00 12.1 C 8.15 g/m*3 12.1 C 0 km/h
282 31-05-2022 23:25:00 11.9 C 8.15 g/m*3 11.9 C 3.2 km/h
283 31-05-2022 23:30:00 11.8 C 8.21 g/m*3 11.8 C 3.2 km/h
284 31-05-2022 23:35:00 11.8 C 8.31 g/m*3 11.8 C 4.8 km/h
285 31-05-2022 23:40:00 11.8 C 8.42 g/m*3 11.8 C 4.8 km/h
286 31-05-2022 23:45:00 11.8 C 8.42 g/m*3 11.8 C 3.2 km/h
287 31-05-2022 23:50:00 11.8 C 8.42 g/m*3 11.8 C 0 km/h
288 31-05-2022 23:55:00 11.9 C 8.58 g/m*3 11.9 C 1.6 km/h

Legende:
   Min
   Max


Maximal/Minimal-Werte vom 31.05.2022 - 31.05.2022

Sensor Min Max Avg
Temp
(Aussen-T/F)
5.8 °C
31-05-2022  05:20:00
21.1 °C
31-05-2022  17:30:00
13.68 °C
Abs-Feuchte
(Aussen-T/F)
6.52 g/m*3
31-05-2022  05:20:00
9.94 g/m*3
31-05-2022  20:05:00
8.18 g/m*3
Windchill
(Aussen-T/F)
5.8 C
31-05-2022  05:20:00
21.1 C
31-05-2022  17:30:00
13.63 C

Die Daten stammen von einer Davis Vantage Pro 2 Wetter-Station und werden unter Linux mit der Software wview2wettercgi und aufbereitet. Alle Angaben erfolgen ohne Gewähr für ihre Vollständigkeit oder Richtigkeit.
Kontakt: Rainer Krienke krienke@uni-koblenz.de . Meine Webseiten an der Uni Koblenz oder privat.
Version: $Revision: 0.78 $